McKeesport, PA

11:10 AM EDT on August 28, 2016 (GMT -0400)
White Oak, PA 15131-1531 | | Change Station

Elev 1076 ft 40.35 °N, 79.82 °W | Updated 9 seconds ago

Clear
Clear
86.7 °F
Feels Like 95 °F
N
2.5
Wind Variable Wind from SSW
Gusts 4.9 mph

Today
High -- | Low -- °F
--% Chance of Precip.
Yesterday
High -- | Low -- °F
Precip. -- in
Pressure 30.22 in
Visibility 10.0 miles
Clouds Clear
Heat Index 95 °F
Dew Point 74 °F
Humidity 66%
Rainfall 0.00 in
Snow Depth Not available.
6:43 AM 7:56 PM
Waning Crescent, 15% visible
METAR KAGC 281453Z VRB03KT 10SM CLR 28/21 A3023 RMK AO2 SLP231 T02780211 51005
Pressure 30.22 in
Visibility 10.0 miles
Clouds Clear
Heat Index 95 °F
Dew Point 74 °F
Humidity 66%
Rainfall 0.00 in
Snow Depth Not available.
6:43 AM 7:56 PM
Waning Crescent, 15% visible
METAR KAGC 281453Z VRB03KT 10SM CLR 28/21 A3023 RMK AO2 SLP231 T02780211 51005

10-Day Weather Forecast

Almanac

Astronomy

Aug. 28, 2016 Rise Set
Actual Time
Civil Twilight
Nautical Twilight
Astronomical Twilight
Moon
Length of Visible Light
Length of Day
Tomorrow will be .
, % of the Moon is Illuminated

Today's Extremes

State Highs State Lows

Community

WunderPhotos

Upload Photos

1,935,572 photos uploaded!

WunderBlog® & News

Nearby

Air Quality

  Air Quality AQ Index Pollutant
Not available.

Snow Depth

Station Depth Elevation

Earthquake Activity

City Distance Mag. Time & Date
Minimum magnitude displayed is 2.5.

Coastal Water Temperatures

Place Temperature

Stations

Nearby Weather Stations

Station Location Temp. Windchill Dew Point Humidity Wind Precip. Elev Updated Type
                   

Watches & Warnings

There are currently no watches in effect.